Time;durP1;ratioP1;P1;durP2;ratioP2;P2;SDS_P1;SDS_P2;PMS_P1;PMS_P2;Temp;Humidity;BMP_temperature;BMP_pressure;BME280_temperature;BME280_humidity;BME280_pressure;Samples;Min_cycle;Max_cycle;Signal;HPM_P1;HPM_P2
2023/06/14 00:02:08;;;;;;;;;7.00;5.00;;;;;19.09;100.00;98547.44;5095164;27;45444;-68
2023/06/14 00:04:33;;;;;;;;;4.00;4.00;;;;;19.06;100.00;98550.38;5090973;27;45436;-69
2023/06/14 00:06:59;;;;;;;;;4.25;4.00;;;;;19.05;100.00;98546.00;5094221;27;45338;-68
2023/06/14 00:09:24;;;;;;;;;4.00;4.00;;;;;19.08;100.00;98535.06;5097395;27;46123;-69
2023/06/14 00:11:50;;;;;;;;;3.25;3.00;;;;;19.11;100.00;98537.44;5096455;27;45566;-68
2023/06/14 00:14:15;;;;;;;;;3.50;3.25;;;;;19.14;100.00;98539.03;5097600;27;45350;-68
2023/06/14 00:16:42;;;;;;;;;5.00;5.00;;;;;19.16;100.00;98543.25;5092914;27;45439;-68
2023/06/14 00:19:10;;;;;;;;;4.60;3.80;;;;;19.17;100.00;98533.44;5096584;27;45488;-69
2023/06/14 00:21:36;;;;;;;;;4.00;4.00;;;;;19.20;100.00;98527.81;5095775;27;45528;-68
2023/06/14 00:24:02;;;;;;;;;7.00;7.00;;;;;19.21;100.00;98532.19;5090956;27;45555;-68
2023/06/14 00:26:27;;;;;;;;;6.00;6.00;;;;;19.22;100.00;98519.69;5097341;27;45466;-68
2023/06/14 00:28:54;;;;;;;;;7.00;7.00;;;;;19.22;100.00;98517.84;5088229;27;46284;-68
2023/06/14 00:31:20;;;;;;;;;5.40;5.40;;;;;19.22;100.00;98514.34;5096837;27;45470;-68
2023/06/14 00:33:45;;;;;;;;;5.75;4.75;;;;;19.24;100.00;98523.91;5094154;27;45519;-69
2023/06/14 00:36:10;;;;;;;;;7.25;5.75;;;;;19.23;100.00;98513.34;5096327;27;45584;-68
2023/06/14 00:38:36;;;;;;;;;6.00;6.00;;;;;19.22;100.00;98517.84;5088642;27;45492;-68
2023/06/14 00:41:01;;;;;;;;;7.00;5.00;;;;;19.23;100.00;98516.03;5096943;27;45440;-68
2023/06/14 00:43:27;;;;;;;;;5.00;5.00;;;;;19.23;100.00;98514.22;5089287;27;45608;-68
2023/06/14 00:45:52;;;;;;;;;7.00;7.00;;;;;19.24;100.00;98515.91;5092842;27;45650;-69
2023/06/14 00:48:18;;;;;;;;;5.25;5.25;;;;;19.26;100.00;98516.63;5093207;27;46001;-68
2023/06/14 00:50:48;;;;;;;;;5.40;4.80;;;;;19.27;100.00;98514.81;5095925;27;45425;-69
2023/06/14 00:53:25;;;;;;;;;6.00;5.00;;;;;19.27;100.00;98517.47;5091430;27;45554;-68
2023/06/14 00:55:50;;;;;;;;;6.00;5.80;;;;;19.24;100.00;98523.91;5096561;27;45407;-68
2023/06/14 00:58:16;;;;;;;;;6.00;5.00;;;;;19.21;100.00;98517.97;5094556;27;46684;-68
2023/06/14 01:00:42;;;;;;;;;5.00;5.00;;;;;19.18;100.00;98511.06;5096355;27;45525;-69
2023/06/14 01:03:07;;;;;;;;;5.75;5.00;;;;;19.16;100.00;98507.69;5074252;28;45512;-68
2023/06/14 01:05:33;;;;;;;;;5.25;5.00;;;;;19.10;100.00;98510.88;5092619;27;45293;-69
2023/06/14 01:08:01;;;;;;;;;6.00;5.50;;;;;19.03;100.00;98515.03;5090572;27;46324;-69
2023/06/14 01:10:51;;;;;;;;;5.40;5.40;;;;;19.01;100.00;98515.16;5095889;27;45463;-68
2023/06/14 01:13:21;;;;;;;;;4.80;4.80;;;;;19.00;100.00;98516.13;5090029;27;45405;-69
2023/06/14 01:15:47;;;;;;;;;7.60;6.00;;;;;19.00;100.00;98510.81;5096626;27;45382;-69
2023/06/14 01:18:19;;;;;;;;;8.60;6.00;;;;;19.01;100.00;98511.66;5090167;27;45436;-69
2023/06/14 01:20:49;;;;;;;;;5.00;5.00;;;;;19.01;100.00;98519.66;5093635;27;45579;-69
2023/06/14 01:23:16;;;;;;;;;4.40;3.80;;;;;18.99;100.00;98517.13;5095207;27;45373;-69
2023/06/14 01:25:44;;;;;;;;;5.20;5.20;;;;;18.98;100.00;98514.56;5096327;27;45425;-69
2023/06/14 01:28:11;;;;;;;;;6.00;5.80;;;;;18.97;100.00;98510.19;5093732;27;46233;-69
2023/06/14 01:30:38;;;;;;;;;6.20;6.20;;;;;18.96;100.00;98514.69;5092807;27;45518;-69
2023/06/14 01:33:05;;;;;;;;;5.00;5.00;;;;;18.94;100.00;98515.78;5076540;27;45532;-69
2023/06/14 01:35:31;;;;;;;;;5.80;5.80;;;;;18.92;100.00;98521.28;5095781;27;45318;-69
2023/06/14 01:37:57;;;;;;;;;7.00;6.25;;;;;18.94;100.00;98518.47;5093902;27;45433;-69
2023/06/14 01:40:23;;;;;;;;;6.00;5.20;;;;;18.94;100.00;98516.66;5089812;27;45498;-69
2023/06/14 01:42:50;;;;;;;;;5.40;5.40;;;;;18.97;100.00;98521.75;5095664;27;45370;-69
2023/06/14 01:45:17;;;;;;;;;6.00;5.00;;;;;18.99;100.00;98519.78;5090313;27;45494;-69
2023/06/14 01:47:44;;;;;;;;;8.00;7.00;;;;;19.02;100.00;98530.22;5089767;27;46747;-69
2023/06/14 01:50:10;;;;;;;;;8.20;7.60;;;;;19.05;100.00;98531.78;5077202;27;45408;-69
2023/06/14 01:52:37;;;;;;;;;4.50;3.50;;;;;19.04;100.00;98530.94;5092275;27;45596;-68
2023/06/14 01:55:02;;;;;;;;;4.40;4.40;;;;;19.03;100.00;98537.25;5095669;27;45384;-69
2023/06/14 01:57:28;;;;;;;;;4.25;3.00;;;;;19.02;100.00;98529.38;5075162;27;48248;-68
2023/06/14 01:59:53;;;;;;;;;4.00;3.50;;;;;19.01;100.00;98528.53;5095105;27;45459;-68
2023/06/14 02:02:18;;;;;;;;;3.00;3.00;;;;;19.01;100.00;98528.53;5092049;27;45429;-69
2023/06/14 02:04:47;;;;;;;;;3.00;2.00;;;;;19.01;100.00;98533.88;5091331;27;45448;-69
2023/06/14 02:07:12;;;;;;;;;4.00;4.00;;;;;18.99;100.00;98542.97;5091477;27;46637;-69
2023/06/14 02:09:38;;;;;;;;;4.50;4.00;;;;;18.95;100.00;98544.22;5087906;27;45529;-69
2023/06/14 02:12:03;;;;;;;;;4.00;4.00;;;;;18.92;100.00;98536.47;5091946;27;45817;-68
2023/06/14 02:14:29;;;;;;;;;4.25;3.00;;;;;18.90;100.00;98541.09;5093933;27;45345;-69
2023/06/14 02:16:54;;;;;;;;;4.00;4.00;;;;;18.90;100.00;98541.94;5093657;27;45782;-69
2023/06/14 02:19:20;;;;;;;;;7.25;4.00;;;;;18.89;100.00;98544.75;5094047;27;45310;-68
2023/06/14 02:21:46;;;;;;;;;1.50;0.50;;;;;18.86;100.00;98537.81;5094347;27;45592;-68
2023/06/14 02:24:12;;;;;;;;;5.00;3.20;;;;;18.85;100.00;98546.81;5095382;27;45505;-69
2023/06/14 02:26:38;;;;;;;;;6.20;4.20;;;;;18.87;100.00;98550.22;5093709;27;45639;-69
2023/06/14 02:29:05;;;;;;;;;5.00;4.75;;;;;18.90;100.00;98549.09;5085312;27;45422;-68
2023/06/14 02:31:32;;;;;;;;;4.00;2.60;;;;;18.92;100.00;98548.00;5094717;27;45428;-68
2023/06/14 02:33:57;;;;;;;;;5.60;5.60;;;;;18.95;100.00;98539.72;5093422;27;45470;-68
2023/06/14 02:36:23;;;;;;;;;4.25;4.25;;;;;18.96;100.00;98540.56;5094485;27;45447;-68
2023/06/14 02:38:48;;;;;;;;;4.75;4.00;;;;;18.97;100.00;98539.59;5090182;27;45420;-68
2023/06/14 02:41:13;;;;;;;;;5.00;5.00;;;;;18.98;100.00;98547.47;5094808;27;45401;-68
2023/06/14 02:43:39;;;;;;;;;5.25;5.00;;;;;18.99;100.00;98546.50;5091989;27;45578;-68
2023/06/14 02:46:04;;;;;;;;;6.00;4.50;;;;;19.02;100.00;98550.75;5094670;27;45708;-68
2023/06/14 02:48:30;;;;;;;;;6.50;6.00;;;;;19.03;100.00;98547.94;5090230;27;45387;-68
2023/06/14 02:50:56;;;;;;;;;5.00;5.00;;;;;19.04;100.00;98548.81;5075765;27;45567;-69
2023/06/14 02:53:22;;;;;;;;;5.60;4.40;;;;;19.06;100.00;98549.53;5082275;27;45335;-69
2023/06/14 02:55:48;;;;;;;;;6.00;5.00;;;;;19.10;100.00;98542.94;5091678;27;46336;-69
2023/06/14 02:58:14;;;;;;;;;6.20;4.00;;;;;19.13;100.00;98542.66;5093351;27;45454;-69
2023/06/14 03:00:40;;;;;;;;;4.40;3.20;;;;;19.16;100.00;98539.75;5095054;27;45556;-69
2023/06/14 03:03:13;;;;;;;;;8.40;6.20;;;;;19.18;100.00;98543.13;5094731;27;45436;-69
2023/06/14 03:05:45;;;;;;;;;5.20;5.20;;;;;19.22;100.00;98543.72;5091044;27;46550;-69
2023/06/14 03:08:16;;;;;;;;;5.40;3.80;;;;;19.21;100.00;98547.38;5076148;27;45508;-69
2023/06/14 03:10:46;;;;;;;;;5.40;5.00;;;;;19.20;100.00;98548.34;5094744;27;45391;-68
2023/06/14 03:13:11;;;;;;;;;7.20;6.40;;;;;19.21;100.00;98552.72;5086702;27;45491;-69
2023/06/14 03:15:38;;;;;;;;;4.00;4.00;;;;;19.20;100.00;98549.19;5076456;27;45883;-69
2023/06/14 03:18:04;;;;;;;;;6.00;6.00;;;;;19.21;100.00;98547.38;5106084;27;45508;-69
2023/06/14 03:20:32;;;;;;;;;6.00;6.00;;;;;19.21;100.00;98550.06;5094285;27;45527;-69
2023/06/14 03:22:59;;;;;;;;;9.00;5.20;;;;;19.23;100.00;98550.78;5092585;27;45416;-68
2023/06/14 03:25:25;;;;;;;;;5.60;5.60;;;;;19.24;100.00;98547.13;5096929;27;45481;-69
2023/06/14 03:27:51;;;;;;;;;6.60;6.60;;;;;19.25;100.00;98552.34;5089757;27;45378;-69
2023/06/14 03:30:17;;;;;;;;;7.25;6.00;;;;;19.25;100.00;98544.31;5096839;27;45431;-69
2023/06/14 03:32:42;;;;;;;;;5.75;5.75;;;;;19.24;100.00;98545.31;5091354;27;45475;-69
2023/06/14 03:35:08;;;;;;;;;6.00;6.00;;;;;19.22;100.00;98546.41;5097157;27;46375;-69
2023/06/14 03:37:34;;;;;;;;;6.20;6.20;;;;;19.21;100.00;98542.88;5076706;27;45486;-68
2023/06/14 03:40:00;;;;;;;;;5.00;5.00;;;;;19.21;100.00;98550.06;5097286;27;45467;-68
2023/06/14 03:42:26;;;;;;;;;6.20;6.20;;;;;19.20;100.00;98551.03;5095581;27;45383;-69
2023/06/14 03:44:51;;;;;;;;;4.75;4.75;;;;;19.17;100.00;98542.28;5097235;27;45474;-69
2023/06/14 03:47:16;;;;;;;;;6.00;5.00;;;;;19.17;100.00;98546.78;5094776;27;45454;-68
2023/06/14 03:49:42;;;;;;;;;5.75;5.75;;;;;19.14;100.00;98545.22;5096729;27;45428;-69
2023/06/14 03:52:07;;;;;;;;;7.50;6.00;;;;;19.14;100.00;98545.22;5092607;27;45542;-69
2023/06/14 03:54:33;;;;;;;;;7.50;5.25;;;;;19.11;100.00;98544.63;5095617;27;45444;-69
2023/06/14 03:56:59;;;;;;;;;5.75;4.00;;;;;19.11;100.00;98544.63;5096050;27;45400;-68
2023/06/14 03:59:25;;;;;;;;;6.20;6.20;;;;;19.13;100.00;98548.00;5094583;27;45463;-69
2023/06/14 04:01:51;;;;;;;;;5.80;4.60;;;;;19.12;100.00;98544.50;5071252;27;45454;-69
2023/06/14 04:04:18;;;;;;;;;4.75;4.75;;;;;19.13;100.00;98545.34;5077719;27;45487;-68
2023/06/14 04:06:43;;;;;;;;;6.60;6.00;;;;;19.14;100.00;98549.72;5094019;27;45634;-68
2023/06/14 04:09:08;;;;;;;;;5.00;5.00;;;;;19.14;100.00;98555.06;5092788;27;45395;-68
2023/06/14 04:11:34;;;;;;;;;6.50;5.75;;;;;19.15;100.00;98556.75;5095725;27;45633;-68
2023/06/14 04:13:59;;;;;;;;;6.00;6.00;;;;;19.17;100.00;98557.47;5089744;27;45796;-68
2023/06/14 04:16:25;;;;;;;;;7.00;5.00;;;;;19.19;100.00;98558.19;5096812;27;45640;-68
2023/06/14 04:18:52;;;;;;;;;7.00;5.75;;;;;19.23;100.00;98559.63;5086514;27;45395;-68
2023/06/14 04:21:18;;;;;;;;;6.00;4.20;;;;;19.24;100.00;98564.00;5078522;27;45464;-68
2023/06/14 04:23:43;;;;;;;;;5.00;5.00;;;;;19.25;100.00;98564.84;5086062;27;46338;-68
2023/06/14 04:26:10;;;;;;;;;5.50;5.50;;;;;19.27;100.00;98568.25;5112441;27;45564;-68
2023/06/14 04:28:40;;;;;;;;;5.40;4.60;;;;;19.29;100.00;98567.13;5087419;27;45503;-68
2023/06/14 04:31:09;;;;;;;;;1.80;1.80;;;;;19.32;100.00;98579.38;5096492;27;45497;-68
2023/06/14 04:33:42;;;;;;;;;7.20;7.20;;;;;19.34;100.00;98583.63;5106830;27;47416;-68
2023/06/14 04:36:12;;;;;;;;;7.00;7.00;;;;;19.36;100.00;98592.38;5095157;27;45711;-68
2023/06/14 04:38:38;;;;;;;;;7.80;7.40;;;;;19.37;100.00;98591.41;5090799;27;45490;-68
2023/06/14 04:41:03;;;;;;;;;7.50;6.75;;;;;19.34;100.00;98593.47;5096457;27;45386;-68
2023/06/14 04:43:29;;;;;;;;;7.75;6.50;;;;;19.30;100.00;98600.03;5092782;27;45590;-69
2023/06/14 04:45:56;;;;;;;;;8.00;6.00;;;;;19.29;100.00;98599.19;5078093;27;45450;-69
2023/06/14 04:48:22;;;;;;;;;6.80;6.80;;;;;19.31;100.00;98601.75;5093872;27;45463;-69
2023/06/14 04:50:52;;;;;;;;;7.00;7.00;;;;;19.31;100.00;98597.25;5096192;27;45535;-69
2023/06/14 04:53:21;;;;;;;;;6.00;6.00;;;;;19.28;100.00;98599.31;5077334;27;47655;-69
2023/06/14 04:55:46;;;;;;;;;5.60;5.00;;;;;19.23;100.00;98601.56;5096184;27;45569;-69
2023/06/14 04:58:12;;;;;;;;;5.25;5.25;;;;;19.20;100.00;98599.13;5091419;27;45444;-69
2023/06/14 05:00:38;;;;;;;;;3.60;2.80;;;;;19.17;100.00;98594.88;5087384;27;45471;-69
2023/06/14 05:03:05;;;;;;;;;6.25;4.75;;;;;19.16;100.00;98596.72;5072916;27;45586;-69
2023/06/14 05:05:31;;;;;;;;;9.40;7.20;;;;;19.19;100.00;98603.63;5095403;27;45372;-69
2023/06/14 05:07:57;;;;;;;;;7.00;6.00;;;;;19.24;100.00;98600.56;5080282;27;45485;-68
2023/06/14 05:10:23;;;;;;;;;6.75;6.75;;;;;19.28;100.00;98597.50;5067521;27;45615;-69
2023/06/14 05:12:48;;;;;;;;;7.25;7.25;;;;;19.34;100.00;98601.50;5081288;27;46399;-69
2023/06/14 05:15:14;;;;;;;;;8.25;8.25;;;;;19.38;100.00;98602.94;5063819;27;46071;-69
2023/06/14 05:17:40;;;;;;;;;5.25;4.00;;;;;19.42;100.00;98602.56;5093771;27;45440;-69
2023/06/14 05:20:07;;;;;;;;;8.00;7.25;;;;;19.47;100.00;98604.81;5072619;27;45479;-69
2023/06/14 05:22:32;;;;;;;;;9.20;8.00;;;;;19.50;99.80;98613.47;5091076;27;46560;-69
2023/06/14 05:24:57;;;;;;;;;6.00;6.00;;;;;19.50;99.52;98613.47;5076675;27;45569;-69
2023/06/14 05:27:24;;;;;;;;;10.75;10.00;;;;;19.51;100.00;98617.84;5094711;27;45493;-70
2023/06/14 05:29:50;;;;;;;;;12.40;10.20;;;;;19.55;100.00;98609.56;5076514;27;45526;-69
2023/06/14 05:32:15;;;;;;;;;10.00;10.00;;;;;19.57;100.00;98608.47;5093804;27;45550;-70
2023/06/14 05:34:42;;;;;;;;;8.25;7.00;;;;;19.60;100.00;98620.72;5094510;27;45377;-70
2023/06/14 05:37:07;;;;;;;;;8.00;7.80;;;;;19.62;99.79;98622.25;5092211;27;45409;-70
2023/06/14 05:39:33;;;;;;;;;11.25;9.50;;;;;19.65;100.00;98618.47;5094370;27;45309;-70
2023/06/14 05:41:58;;;;;;;;;11.25;11.25;;;;;19.67;100.00;98620.06;5091625;27;45893;-69
2023/06/14 05:44:24;;;;;;;;;11.25;10.00;;;;;19.69;99.77;98631.47;5089027;27;45498;-70
2023/06/14 05:46:49;;;;;;;;;12.00;10.75;;;;;19.71;100.00;98634.88;5074298;27;45432;-70
2023/06/14 05:49:15;;;;;;;;;9.75;9.75;;;;;19.73;98.81;98629.41;5075717;27;45681;-69
2023/06/14 05:51:40;;;;;;;;;10.00;8.50;;;;;19.74;98.72;98628.41;5084352;27;45607;-69
2023/06/14 05:54:07;;;;;;;;;8.40;7.20;;;;;19.74;98.31;98626.59;5089385;27;45472;-69
2023/06/14 05:56:32;;;;;;;;;10.00;10.00;;;;;19.75;98.42;98630.97;5094844;27;45952;-70
2023/06/14 05:58:58;;;;;;;;;7.75;7.00;;;;;19.76;97.09;98627.31;5091643;27;45538;-69
2023/06/14 06:01:23;;;;;;;;;10.00;8.00;;;;;19.76;97.06;98629.13;5094064;27;45697;-70
2023/06/14 06:03:48;;;;;;;;;10.00;9.00;;;;;19.75;97.90;98622.94;5090000;27;45561;-71
2023/06/14 06:06:14;;;;;;;;;7.50;7.50;;;;;19.74;98.58;98620.38;5092856;27;45435;-70
2023/06/14 06:08:40;;;;;;;;;8.00;7.40;;;;;19.77;98.45;98620.13;5075612;27;45467;-70
2023/06/14 06:11:06;;;;;;;;;10.00;9.25;;;;;19.78;98.34;98627.16;5094167;27;46334;-69
2023/06/14 06:13:31;;;;;;;;;10.75;9.00;;;;;19.77;97.06;98623.63;5081634;27;45375;-70
2023/06/14 06:15:56;;;;;;;;;7.75;7.25;;;;;19.77;98.03;98626.31;5084657;27;45465;-70
2023/06/14 06:18:22;;;;;;;;;8.75;8.00;;;;;19.82;97.72;98626.75;5091248;27;45496;-69
2023/06/14 06:20:47;;;;;;;;;9.75;9.75;;;;;19.88;98.50;98616.53;5091471;27;46409;-70
2023/06/14 06:23:13;;;;;;;;;8.75;8.75;;;;;19.95;98.25;98620.34;5088393;27;45436;-70
2023/06/14 06:25:38;;;;;;;;;9.25;9.25;;;;;19.99;97.10;98619.13;5094608;27;45377;-71
2023/06/14 06:28:04;;;;;;;;;9.00;9.00;;;;;20.02;97.90;98624.19;5075555;27;45601;-70
2023/06/14 06:30:29;;;;;;;;;11.00;10.50;;;;;20.06;98.33;98617.63;5093923;27;46538;-71
2023/06/14 06:32:55;;;;;;;;;12.25;12.25;;;;;20.11;98.61;98608.19;5093423;27;45384;-72
2023/06/14 06:35:21;;;;;;;;;13.40;12.80;;;;;20.19;98.90;98608.38;5092301;27;45449;-70
2023/06/14 06:37:46;;;;;;;;;11.75;11.00;;;;;20.28;98.03;98603.19;5085177;27;45545;-70
2023/06/14 06:40:12;;;;;;;;;13.25;11.25;;;;;20.35;98.40;98599.00;5082320;27;46374;-71
2023/06/14 06:42:38;;;;;;;;;20.50;17.75;;;;;20.42;98.38;98598.34;5090918;27;45883;-69
2023/06/14 06:45:04;;;;;;;;;15.25;13.00;;;;;20.49;97.56;98618.22;5086679;27;45392;-70
2023/06/14 06:47:29;;;;;;;;;10.60;10.60;;;;;20.55;96.62;98622.22;5092715;27;45486;-69
2023/06/14 06:49:55;;;;;;;;;10.50;10.50;;;;;20.64;96.78;98617.84;5087611;27;46074;-71
2023/06/14 06:52:20;;;;;;;;;16.00;14.00;;;;;20.71;97.05;98625.22;5074973;27;45338;-69
2023/06/14 06:54:46;;;;;;;;;10.50;10.50;;;;;20.79;96.08;98614.63;5094227;27;45434;-69
2023/06/14 06:57:12;;;;;;;;;11.50;10.75;;;;;20.88;96.33;98621.88;5088788;27;45536;-69
2023/06/14 06:59:37;;;;;;;;;13.75;12.75;;;;;20.94;95.81;98616.94;5090805;27;46298;-69
2023/06/14 07:02:03;;;;;;;;;13.25;11.75;;;;;20.97;95.59;98616.66;5090580;27;45452;-68
2023/06/14 07:04:28;;;;;;;;;15.80;12.00;;;;;20.98;94.73;98627.22;5064776;28;45359;-68
2023/06/14 07:06:54;;;;;;;;;12.50;11.00;;;;;20.99;95.35;98630.75;5091208;27;45330;-68
2023/06/14 07:09:20;;;;;;;;;11.25;10.00;;;;;21.02;94.96;98625.97;5080705;27;47642;-68
2023/06/14 07:11:47;;;;;;;;;10.20;10.20;;;;;21.05;95.00;98632.88;5068773;27;45692;-68
2023/06/14 07:14:12;;;;;;;;;16.00;12.60;;;;;21.04;94.50;98632.03;5092329;27;45554;-68
2023/06/14 07:16:38;;;;;;;;;14.50;13.50;;;;;21.04;94.45;98632.03;5092670;27;45686;-68
2023/06/14 07:19:04;;;;;;;;;15.75;14.00;;;;;21.04;94.71;98633.88;5085171;27;46327;-68
2023/06/14 07:21:29;;;;;;;;;12.25;12.25;;;;;21.03;94.62;98640.22;5092389;27;45403;-68
2023/06/14 07:23:55;;;;;;;;;13.75;11.50;;;;;21.03;94.35;98640.22;5087912;27;45417;-68
2023/06/14 07:26:21;;;;;;;;;14.20;13.20;;;;;21.07;95.25;98644.31;5070478;27;45777;-67
2023/06/14 07:28:48;;;;;;;;;13.00;13.00;;;;;21.13;95.18;98646.44;5089720;27;46233;-68
2023/06/14 07:31:15;;;;;;;;;13.00;12.40;;;;;21.17;94.66;98646.03;5073947;27;45483;-68
2023/06/14 07:33:41;;;;;;;;;16.80;16.20;;;;;21.18;93.64;98645.03;5089900;27;45432;-68
2023/06/14 07:36:06;;;;;;;;;14.20;14.20;;;;;21.19;93.73;98633.34;5092123;27;45514;-68
2023/06/14 07:38:32;;;;;;;;;14.00;12.75;;;;;21.22;93.46;98634.91;5088871;27;45356;-69
2023/06/14 07:40:57;;;;;;;;;14.00;14.00;;;;;21.24;93.44;98638.31;5093370;27;45956;-68
2023/06/14 07:43:23;;;;;;;;;13.75;12.00;;;;;21.26;93.16;98644.38;5089313;27;45459;-68
2023/06/14 07:45:48;;;;;;;;;13.00;12.50;;;;;21.27;93.31;98645.22;5092508;27;45527;-68
2023/06/14 07:48:13;;;;;;;;;13.50;13.00;;;;;21.29;93.47;98636.03;5089622;27;45600;-68
2023/06/14 07:50:39;;;;;;;;;10.00;10.00;;;;;21.31;93.52;98641.25;5092647;27;45463;-68
2023/06/14 07:53:04;;;;;;;;;12.75;11.25;;;;;21.33;93.07;98640.13;5071321;28;45491;-68
2023/06/14 07:55:32;;;;;;;;;12.25;10.75;;;;;21.33;92.13;98641.97;5094872;27;45481;-68
2023/06/14 07:57:58;;;;;;;;;14.60;13.20;;;;;21.34;91.61;98639.16;5088504;27;46456;-68
2023/06/14 08:00:23;;;;;;;;;11.50;9.50;;;;;21.34;91.17;98639.16;5091623;27;45415;-68
2023/06/14 08:02:50;;;;;;;;;13.75;10.75;;;;;21.34;91.66;98635.63;5085582;27;45540;-68
2023/06/14 08:05:25;;;;;;;;;9.40;9.40;;;;;21.35;90.60;98640.00;5091158;27;45338;-71
2023/06/14 08:07:51;;;;;;;;;10.80;10.80;;;;;21.37;90.97;98638.88;5090630;27;45561;-68
2023/06/14 08:10:16;;;;;;;;;12.00;10.00;;;;;21.42;91.21;98636.63;5086993;27;45393;-68
2023/06/14 08:12:42;;;;;;;;;9.75;9.75;;;;;21.46;90.21;98640.69;5082732;27;45538;-68
2023/06/14 08:15:08;;;;;;;;;9.00;9.00;;;;;21.49;90.60;98642.25;5090611;27;45511;-68
2023/06/14 08:17:34;;;;;;;;;15.00;10.40;;;;;21.51;90.16;98645.63;5073325;28;48430;-68
2023/06/14 08:19:59;;;;;;;;;13.00;13.00;;;;;21.51;90.18;98638.44;5090597;27;45407;-68
2023/06/14 08:22:25;;;;;;;;;9.75;9.75;;;;;21.49;89.73;98639.56;5090827;27;45382;-68
2023/06/14 08:24:52;;;;;;;;;13.80;12.60;;;;;21.50;90.44;98635.91;5065454;27;45598;-68
2023/06/14 08:27:18;;;;;;;;;8.20;7.20;;;;;21.53;89.80;98633.78;5092004;27;45477;-68
2023/06/14 08:29:44;;;;;;;;;9.00;9.00;;;;;21.58;89.00;98631.53;5084153;27;45264;-68
2023/06/14 08:32:10;;;;;;;;;8.20;8.20;;;;;21.64;88.33;98627.41;5094295;27;45599;-68
2023/06/14 08:34:35;;;;;;;;;7.75;7.75;;;;;21.67;88.10;98627.13;5094963;27;45531;-68
2023/06/14 08:37:01;;;;;;;;;11.25;10.00;;;;;21.74;87.81;98636.31;5077663;27;47780;-68
2023/06/14 08:39:26;;;;;;;;;14.50;13.00;;;;;21.83;87.72;98637.25;5094887;27;45444;-68
2023/06/14 08:41:52;;;;;;;;;8.50;8.50;;;;;21.89;85.83;98634.88;5093861;27;45377;-68
2023/06/14 08:44:18;;;;;;;;;5.25;3.25;;;;;21.92;84.63;98637.25;5073058;28;45592;-68
2023/06/14 08:46:43;;;;;;;;;8.00;8.00;;;;;21.93;85.52;98635.44;5086764;27;45582;-68
2023/06/14 08:49:12;;;;;;;;;10.50;10.50;;;;;21.98;84.74;98627.75;5065519;28;45445;-68
2023/06/14 08:51:38;;;;;;;;;9.00;8.60;;;;;22.04;85.29;98626.38;5087605;27;45400;-68
2023/06/14 08:54:04;;;;;;;;;7.00;7.00;;;;;22.10;82.76;98633.84;5088052;27;45273;-68
2023/06/14 08:56:31;;;;;;;;;12.40;11.00;;;;;22.16;83.84;98626.03;5089496;27;45508;-68
2023/06/14 08:59:02;;;;;;;;;11.20;11.20;;;;;22.24;84.38;98625.31;5083454;27;45411;-67
2023/06/14 09:01:28;;;;;;;;;9.40;8.00;;;;;22.33;82.49;98620.91;5076397;27;45470;-67
2023/06/14 09:03:57;;;;;;;;;10.00;9.25;;;;;22.40;82.58;98628.22;5085787;27;45440;-69
2023/06/14 09:06:23;;;;;;;;;10.80;9.20;;;;;22.45;82.16;98619.75;5094165;27;45671;-68
2023/06/14 09:08:49;;;;;;;;;8.00;8.00;;;;;22.47;81.30;98620.41;5089371;27;45476;-68
2023/06/14 09:11:18;;;;;;;;;12.00;9.80;;;;;22.52;82.52;98628.88;5089419;27;45443;-68
2023/06/14 09:13:44;;;;;;;;;9.20;8.00;;;;;22.57;82.20;98627.44;5089036;27;45374;-68
2023/06/14 09:16:10;;;;;;;;;10.50;10.50;;;;;22.61;82.15;98623.47;5099220;27;46080;-68
2023/06/14 09:18:37;;;;;;;;;10.75;10.75;;;;;22.69;81.13;98616.47;5074492;27;45445;-68
2023/06/14 09:21:02;;;;;;;;;8.20;8.20;;;;;22.71;79.22;98622.56;5075978;27;45460;-68
2023/06/14 09:23:28;;;;;;;;;7.00;6.75;;;;;22.70;78.86;98623.56;5092070;27;45585;-68
2023/06/14 09:25:54;;;;;;;;;8.25;7.00;;;;;22.70;80.02;98619.03;5095628;27;45522;-68
2023/06/14 09:28:22;;;;;;;;;9.25;9.25;;;;;22.75;78.31;98624.81;5090528;27;45460;-68
2023/06/14 09:30:47;;;;;;;;;7.00;7.00;;;;;22.79;77.89;98623.50;5095528;27;45356;-68
2023/06/14 09:33:17;;;;;;;;;6.00;6.00;;;;;22.85;77.92;98620.25;5090412;27;45507;-68
2023/06/14 09:35:45;;;;;;;;;8.80;8.00;;;;;22.91;77.30;98625.03;5094914;27;45599;-68
2023/06/14 09:38:11;;;;;;;;;5.60;5.60;;;;;22.97;76.09;98620.84;5091553;27;45461;-68
2023/06/14 09:40:36;;;;;;;;;5.50;5.50;;;;;23.02;73.96;98615.88;5095357;27;45524;-68
2023/06/14 09:43:06;;;;;;;;;5.75;5.75;;;;;23.07;74.58;98618.13;5089071;27;45519;-68
2023/06/14 09:45:32;;;;;;;;;7.20;6.00;;;;;23.11;74.90;98617.66;5094822;27;46555;-68
2023/06/14 09:47:58;;;;;;;;;6.80;6.00;;;;;23.19;74.30;98612.34;5091087;27;45512;-68
2023/06/14 09:50:23;;;;;;;;;5.00;5.00;;;;;23.26;74.96;98609.91;5093118;27;45424;-68
2023/06/14 09:52:52;;;;;;;;;5.00;5.00;;;;;23.28;73.58;98619.53;5090391;27;45447;-68
2023/06/14 09:55:19;;;;;;;;;5.00;5.00;;;;;23.33;73.23;98619.88;5094707;27;46182;-68
2023/06/14 09:57:47;;;;;;;;;6.20;5.80;;;;;23.40;72.65;98608.50;5076196;27;45449;-67
2023/06/14 10:00:15;;;;;;;;;7.80;5.20;;;;;23.49;73.14;98616.47;5095085;27;45353;-67
2023/06/14 10:02:48;;;;;;;;;7.00;7.00;;;;;23.59;71.74;98616.44;5092323;27;45488;-68
2023/06/14 10:05:17;;;;;;;;;7.20;5.80;;;;;23.62;71.79;98611.59;5073141;27;48111;-68
2023/06/14 10:07:52;;;;;;;;;6.20;5.80;;;;;23.64;71.24;98609.56;5071126;27;45472;-68
2023/06/14 10:10:18;;;;;;;;;9.60;7.60;;;;;23.67;71.35;98609.25;5095027;27;45530;-67
2023/06/14 10:12:44;;;;;;;;;6.80;6.80;;;;;23.74;72.06;98617.56;5088340;27;45405;-67
2023/06/14 10:15:13;;;;;;;;;6.00;6.00;;;;;23.84;72.91;98615.63;5094652;27;45427;-68
2023/06/14 10:17:58;;;;;;;;;8.60;7.80;;;;;23.96;71.73;98616.22;5090411;27;45447;-67
2023/06/14 10:20:33;;;;;;;;;9.60;8.60;;;;;24.05;71.57;98617.94;5093763;27;45487;-68
2023/06/14 10:23:13;;;;;;;;;8.40;6.80;;;;;24.16;70.11;98606.91;5069631;27;45920;-68
2023/06/14 10:25:38;;;;;;;;;7.80;7.80;;;;;24.24;69.84;98604.28;5094135;27;45842;-68
2023/06/14 10:28:18;;;;;;;;;8.00;8.00;;;;;24.27;67.94;98601.28;5086711;27;45338;-67
2023/06/14 10:31:09;;;;;;;;;7.60;6.80;;;;;24.30;68.04;98600.94;5075171;27;45441;-67
2023/06/14 10:33:55;;;;;;;;;9.20;8.60;;;;;24.33;68.89;98597.06;5086978;27;45388;-68
2023/06/14 10:36:31;;;;;;;;;7.80;6.80;;;;;24.31;67.69;98599.09;5088947;27;45513;-68
2023/06/14 10:39:15;;;;;;;;;9.60;8.60;;;;;24.35;67.13;98598.63;5090755;27;45425;-67
2023/06/14 10:41:41;;;;;;;;;8.20;8.00;;;;;24.41;66.74;98591.75;5065398;27;45382;-68
2023/06/14 10:44:12;;;;;;;;;7.20;7.00;;;;;24.52;63.65;98593.28;5091716;27;45573;-68
2023/06/14 10:46:48;;;;;;;;;8.00;8.00;;;;;24.61;66.23;98585.09;5094229;27;45585;-67
2023/06/14 10:49:20;;;;;;;;;11.80;11.60;;;;;24.79;65.73;98582.28;5089678;27;45465;-68
2023/06/14 10:51:50;;;;;;;;;10.40;10.40;;;;;24.92;65.22;98577.25;5093273;27;45515;-67
2023/06/14 10:54:27;;;;;;;;;9.40;8.40;;;;;24.95;63.29;98573.41;5090873;27;45547;-67
2023/06/14 10:56:54;;;;;;;;;9.00;9.00;;;;;25.03;64.05;98578.81;5092262;27;45761;-68
2023/06/14 10:59:20;;;;;;;;;8.60;8.00;;;;;25.14;63.31;98578.47;5064992;28;45519;-67
2023/06/14 11:02:07;;;;;;;;;11.40;8.80;;;;;25.23;62.99;98582.88;5067060;27;45417;-67
2023/06/14 11:05:05;;;;;;;;;9.20;8.60;;;;;25.34;61.33;98570.91;5086650;27;45558;-67
2023/06/14 11:07:39;;;;;;;;;8.60;8.60;;;;;25.46;63.79;98568.75;5081765;27;45665;-67
2023/06/14 11:10:36;;;;;;;;;9.80;9.80;;;;;25.66;63.65;98570.91;5075993;27;45311;-68
2023/06/14 11:13:02;;;;;;;;;10.20;10.20;;;;;25.76;59.81;98584.25;5094410;27;45398;-67
2023/06/14 11:15:32;;;;;;;;;8.20;8.20;;;;;25.73;58.51;98574.63;5075684;27;45496;-67
2023/06/14 11:18:00;;;;;;;;;8.60;8.60;;;;;25.73;56.87;98573.78;5094281;27;45594;-67
2023/06/14 11:20:27;;;;;;;;;12.40;12.00;;;;;25.66;57.68;98570.09;5093563;27;45407;-68
2023/06/14 11:22:54;;;;;;;;;9.60;9.40;;;;;25.61;58.00;98567.03;5093911;27;45437;-68
2023/06/14 11:25:19;;;;;;;;;11.40;10.80;;;;;25.56;57.86;98559.44;5075353;27;45405;-68